sensor_id;sensor_type;location;lat;lon;timestamp;P1;durP1;ratioP1;P2;durP2;ratioP2
34828;SDS011;21042;47.620;12.188;2022-10-16T00:01:11;7.32;;;4.22;;
34828;SDS011;21042;47.620;12.188;2022-10-16T00:03:39;11.93;;;4.60;;
34828;SDS011;21042;47.620;12.188;2022-10-16T00:06:07;8.50;;;4.97;;
34828;SDS011;21042;47.620;12.188;2022-10-16T00:08:36;8.95;;;4.75;;
34828;SDS011;21042;47.620;12.188;2022-10-16T00:11:08;8.50;;;4.45;;
34828;SDS011;21042;47.620;12.188;2022-10-16T00:13:38;10.13;;;4.07;;
34828;SDS011;21042;47.620;12.188;2022-10-16T00:16:07;10.07;;;4.55;;
34828;SDS011;21042;47.620;12.188;2022-10-16T00:18:35;7.82;;;4.75;;
34828;SDS011;21042;47.620;12.188;2022-10-16T00:21:04;11.63;;;5.32;;
34828;SDS011;21042;47.620;12.188;2022-10-16T00:23:32;6.30;;;4.20;;
34828;SDS011;21042;47.620;12.188;2022-10-16T00:26:01;8.80;;;4.65;;
34828;SDS011;21042;47.620;12.188;2022-10-16T00:28:30;10.23;;;4.95;;
34828;SDS011;21042;47.620;12.188;2022-10-16T00:30:57;12.88;;;5.60;;
34828;SDS011;21042;47.620;12.188;2022-10-16T00:33:24;13.32;;;5.13;;
34828;SDS011;21042;47.620;12.188;2022-10-16T00:35:51;10.32;;;4.97;;
34828;SDS011;21042;47.620;12.188;2022-10-16T00:38:17;10.45;;;5.05;;
34828;SDS011;21042;47.620;12.188;2022-10-16T00:40:44;11.07;;;5.57;;
34828;SDS011;21042;47.620;12.188;2022-10-16T00:43:32;6.90;;;4.47;;
34828;SDS011;21042;47.620;12.188;2022-10-16T00:46:08;7.88;;;5.05;;
34828;SDS011;21042;47.620;12.188;2022-10-16T00:48:48;10.85;;;4.90;;
34828;SDS011;21042;47.620;12.188;2022-10-16T00:51:28;10.93;;;4.47;;
34828;SDS011;21042;47.620;12.188;2022-10-16T00:53:59;9.43;;;4.90;;
34828;SDS011;21042;47.620;12.188;2022-10-16T00:56:28;9.63;;;4.45;;
34828;SDS011;21042;47.620;12.188;2022-10-16T00:58:55;9.32;;;5.18;;
34828;SDS011;21042;47.620;12.188;2022-10-16T01:01:22;8.73;;;4.30;;
34828;SDS011;21042;47.620;12.188;2022-10-16T01:03:48;12.85;;;4.43;;
34828;SDS011;21042;47.620;12.188;2022-10-16T01:06:28;11.52;;;4.47;;
34828;SDS011;21042;47.620;12.188;2022-10-16T01:12:00;12.30;;;4.32;;
34828;SDS011;21042;47.620;12.188;2022-10-16T01:14:48;9.18;;;4.40;;
34828;SDS011;21042;47.620;12.188;2022-10-16T01:17:17;6.47;;;4.90;;
34828;SDS011;21042;47.620;12.188;2022-10-16T01:23:05;14.25;;;4.85;;
34828;SDS011;21042;47.620;12.188;2022-10-16T01:28:52;10.10;;;4.78;;
34828;SDS011;21042;47.620;12.188;2022-10-16T01:31:17;8.90;;;4.95;;
34828;SDS011;21042;47.620;12.188;2022-10-16T01:33:47;10.57;;;4.82;;
34828;SDS011;21042;47.620;12.188;2022-10-16T01:36:30;8.10;;;4.90;;
34828;SDS011;21042;47.620;12.188;2022-10-16T01:39:03;6.88;;;4.65;;
34828;SDS011;21042;47.620;12.188;2022-10-16T01:41:33;10.77;;;4.85;;
34828;SDS011;21042;47.620;12.188;2022-10-16T01:44:06;8.02;;;4.68;;
34828;SDS011;21042;47.620;12.188;2022-10-16T01:46:39;7.47;;;4.75;;
34828;SDS011;21042;47.620;12.188;2022-10-16T01:49:08;8.05;;;4.38;;
34828;SDS011;21042;47.620;12.188;2022-10-16T01:51:36;4.88;;;3.58;;
34828;SDS011;21042;47.620;12.188;2022-10-16T01:54:04;6.65;;;3.70;;
34828;SDS011;21042;47.620;12.188;2022-10-16T01:56:34;9.25;;;3.25;;
34828;SDS011;21042;47.620;12.188;2022-10-16T01:59:06;11.68;;;3.92;;
34828;SDS011;21042;47.620;12.188;2022-10-16T02:01:37;6.95;;;3.92;;
34828;SDS011;21042;47.620;12.188;2022-10-16T02:04:15;7.18;;;4.30;;
34828;SDS011;21042;47.620;12.188;2022-10-16T02:06:50;10.00;;;5.10;;
34828;SDS011;21042;47.620;12.188;2022-10-16T02:09:18;12.25;;;5.35;;
34828;SDS011;21042;47.620;12.188;2022-10-16T02:11:45;8.70;;;5.18;;
34828;SDS011;21042;47.620;12.188;2022-10-16T02:14:12;12.20;;;6.13;;
34828;SDS011;21042;47.620;12.188;2022-10-16T02:16:43;12.98;;;5.05;;
34828;SDS011;21042;47.620;12.188;2022-10-16T02:19:15;12.10;;;5.85;;
34828;SDS011;21042;47.620;12.188;2022-10-16T02:21:50;14.32;;;5.75;;
34828;SDS011;21042;47.620;12.188;2022-10-16T02:30:41;8.55;;;5.57;;
34828;SDS011;21042;47.620;12.188;2022-10-16T02:33:14;11.70;;;6.72;;
34828;SDS011;21042;47.620;12.188;2022-10-16T02:35:43;14.45;;;6.20;;
34828;SDS011;21042;47.620;12.188;2022-10-16T02:38:12;11.27;;;5.15;;
34828;SDS011;21042;47.620;12.188;2022-10-16T02:40:41;11.15;;;5.70;;
34828;SDS011;21042;47.620;12.188;2022-10-16T02:43:08;8.60;;;5.60;;
34828;SDS011;21042;47.620;12.188;2022-10-16T02:45:36;11.05;;;5.35;;
34828;SDS011;21042;47.620;12.188;2022-10-16T02:48:03;13.02;;;5.43;;
34828;SDS011;21042;47.620;12.188;2022-10-16T02:52:57;10.85;;;4.18;;
34828;SDS011;21042;47.620;12.188;2022-10-16T02:55:24;11.43;;;5.18;;
34828;SDS011;21042;47.620;12.188;2022-10-16T02:57:51;11.57;;;4.85;;
34828;SDS011;21042;47.620;12.188;2022-10-16T03:00:18;10.55;;;5.30;;
34828;SDS011;21042;47.620;12.188;2022-10-16T03:02:45;11.57;;;5.55;;
34828;SDS011;21042;47.620;12.188;2022-10-16T03:05:13;8.30;;;5.50;;
34828;SDS011;21042;47.620;12.188;2022-10-16T03:07:40;8.90;;;5.57;;
34828;SDS011;21042;47.620;12.188;2022-10-16T03:10:07;10.93;;;5.07;;
34828;SDS011;21042;47.620;12.188;2022-10-16T03:12:34;10.77;;;5.03;;
34828;SDS011;21042;47.620;12.188;2022-10-16T03:15:01;6.70;;;4.13;;
34828;SDS011;21042;47.620;12.188;2022-10-16T03:17:27;12.52;;;5.18;;
34828;SDS011;21042;47.620;12.188;2022-10-16T03:19:54;7.80;;;4.93;;
34828;SDS011;21042;47.620;12.188;2022-10-16T03:22:21;12.60;;;6.03;;
34828;SDS011;21042;47.620;12.188;2022-10-16T03:24:48;8.38;;;5.85;;
34828;SDS011;21042;47.620;12.188;2022-10-16T03:27:15;19.90;;;6.47;;
34828;SDS011;21042;47.620;12.188;2022-10-16T03:29:41;10.13;;;5.90;;
34828;SDS011;21042;47.620;12.188;2022-10-16T03:32:08;12.63;;;5.90;;
34828;SDS011;21042;47.620;12.188;2022-10-16T03:34:35;14.13;;;6.45;;
34828;SDS011;21042;47.620;12.188;2022-10-16T03:37:01;10.70;;;6.03;;
34828;SDS011;21042;47.620;12.188;2022-10-16T03:39:28;9.15;;;6.20;;
34828;SDS011;21042;47.620;12.188;2022-10-16T03:41:55;10.23;;;5.72;;
34828;SDS011;21042;47.620;12.188;2022-10-16T03:44:22;12.25;;;6.15;;
34828;SDS011;21042;47.620;12.188;2022-10-16T03:46:48;10.18;;;5.47;;
34828;SDS011;21042;47.620;12.188;2022-10-16T03:49:15;11.30;;;5.43;;
34828;SDS011;21042;47.620;12.188;2022-10-16T03:51:42;12.48;;;6.18;;
34828;SDS011;21042;47.620;12.188;2022-10-16T03:54:09;9.45;;;5.00;;
34828;SDS011;21042;47.620;12.188;2022-10-16T03:56:36;8.35;;;5.32;;
34828;SDS011;21042;47.620;12.188;2022-10-16T03:59:03;9.50;;;6.07;;
34828;SDS011;21042;47.620;12.188;2022-10-16T04:01:30;9.38;;;5.20;;
34828;SDS011;21042;47.620;12.188;2022-10-16T04:03:57;11.25;;;4.65;;
34828;SDS011;21042;47.620;12.188;2022-10-16T04:06:23;11.32;;;5.82;;
34828;SDS011;21042;47.620;12.188;2022-10-16T04:08:50;8.63;;;5.72;;
34828;SDS011;21042;47.620;12.188;2022-10-16T04:11:17;7.97;;;4.55;;
34828;SDS011;21042;47.620;12.188;2022-10-16T04:13:43;11.10;;;4.72;;
34828;SDS011;21042;47.620;12.188;2022-10-16T04:16:10;9.52;;;5.57;;
34828;SDS011;21042;47.620;12.188;2022-10-16T04:18:37;8.23;;;5.07;;
34828;SDS011;21042;47.620;12.188;2022-10-16T04:21:04;8.10;;;5.38;;
34828;SDS011;21042;47.620;12.188;2022-10-16T04:23:32;9.52;;;5.20;;
34828;SDS011;21042;47.620;12.188;2022-10-16T04:25:59;13.98;;;5.95;;
34828;SDS011;21042;47.620;12.188;2022-10-16T04:30:53;10.75;;;5.13;;
34828;SDS011;21042;47.620;12.188;2022-10-16T04:33:20;12.52;;;6.95;;
34828;SDS011;21042;47.620;12.188;2022-10-16T04:35:47;10.63;;;6.35;;
34828;SDS011;21042;47.620;12.188;2022-10-16T04:38:14;12.07;;;5.95;;
34828;SDS011;21042;47.620;12.188;2022-10-16T04:40:41;8.48;;;5.05;;
34828;SDS011;21042;47.620;12.188;2022-10-16T04:43:08;11.52;;;6.40;;
34828;SDS011;21042;47.620;12.188;2022-10-16T04:45:35;11.98;;;6.88;;
34828;SDS011;21042;47.620;12.188;2022-10-16T04:48:02;15.85;;;8.40;;
34828;SDS011;21042;47.620;12.188;2022-10-16T04:50:29;7.88;;;4.93;;
34828;SDS011;21042;47.620;12.188;2022-10-16T04:53:05;10.80;;;5.10;;
34828;SDS011;21042;47.620;12.188;2022-10-16T04:55:32;13.15;;;5.20;;
34828;SDS011;21042;47.620;12.188;2022-10-16T04:57:59;7.20;;;4.70;;
34828;SDS011;21042;47.620;12.188;2022-10-16T05:00:26;9.70;;;4.38;;
34828;SDS011;21042;47.620;12.188;2022-10-16T05:02:53;7.25;;;4.63;;
34828;SDS011;21042;47.620;12.188;2022-10-16T05:05:20;8.13;;;5.00;;
34828;SDS011;21042;47.620;12.188;2022-10-16T05:07:47;9.77;;;4.65;;
34828;SDS011;21042;47.620;12.188;2022-10-16T05:10:15;8.43;;;4.78;;
34828;SDS011;21042;47.620;12.188;2022-10-16T05:12:43;9.25;;;4.78;;
34828;SDS011;21042;47.620;12.188;2022-10-16T05:15:10;9.02;;;4.65;;
34828;SDS011;21042;47.620;12.188;2022-10-16T05:17:36;15.48;;;4.90;;
34828;SDS011;21042;47.620;12.188;2022-10-16T05:20:09;9.77;;;4.78;;
34828;SDS011;21042;47.620;12.188;2022-10-16T05:25:04;5.43;;;3.67;;
34828;SDS011;21042;47.620;12.188;2022-10-16T05:27:31;7.13;;;3.78;;
34828;SDS011;21042;47.620;12.188;2022-10-16T05:29:57;10.05;;;4.38;;
34828;SDS011;21042;47.620;12.188;2022-10-16T05:32:24;18.48;;;6.93;;
34828;SDS011;21042;47.620;12.188;2022-10-16T05:34:51;9.05;;;4.80;;
34828;SDS011;21042;47.620;12.188;2022-10-16T05:37:18;5.90;;;4.25;;
34828;SDS011;21042;47.620;12.188;2022-10-16T05:39:45;12.05;;;4.45;;
34828;SDS011;21042;47.620;12.188;2022-10-16T05:42:11;6.53;;;3.42;;
34828;SDS011;21042;47.620;12.188;2022-10-16T05:44:38;6.25;;;3.72;;
34828;SDS011;21042;47.620;12.188;2022-10-16T05:47:05;9.77;;;3.90;;
34828;SDS011;21042;47.620;12.188;2022-10-16T05:49:32;7.20;;;3.60;;
34828;SDS011;21042;47.620;12.188;2022-10-16T05:52:04;4.97;;;3.38;;
34828;SDS011;21042;47.620;12.188;2022-10-16T05:54:31;6.57;;;4.25;;
34828;SDS011;21042;47.620;12.188;2022-10-16T05:56:57;8.07;;;3.83;;
34828;SDS011;21042;47.620;12.188;2022-10-16T05:59:24;7.55;;;4.50;;
34828;SDS011;21042;47.620;12.188;2022-10-16T06:01:51;10.05;;;4.68;;
34828;SDS011;21042;47.620;12.188;2022-10-16T06:04:19;8.55;;;4.28;;
34828;SDS011;21042;47.620;12.188;2022-10-16T06:06:46;16.83;;;5.00;;
34828;SDS011;21042;47.620;12.188;2022-10-16T06:09:12;10.02;;;5.10;;
34828;SDS011;21042;47.620;12.188;2022-10-16T06:11:39;8.10;;;4.22;;
34828;SDS011;21042;47.620;12.188;2022-10-16T06:14:07;7.75;;;4.20;;
34828;SDS011;21042;47.620;12.188;2022-10-16T06:16:35;10.07;;;4.45;;
34828;SDS011;21042;47.620;12.188;2022-10-16T06:19:03;11.43;;;6.25;;
34828;SDS011;21042;47.620;12.188;2022-10-16T06:21:32;8.00;;;4.85;;
34828;SDS011;21042;47.620;12.188;2022-10-16T06:23:59;6.53;;;4.13;;
34828;SDS011;21042;47.620;12.188;2022-10-16T06:26:27;12.85;;;4.65;;
34828;SDS011;21042;47.620;12.188;2022-10-16T06:28:55;9.68;;;4.28;;
34828;SDS011;21042;47.620;12.188;2022-10-16T06:31:23;8.13;;;4.53;;
34828;SDS011;21042;47.620;12.188;2022-10-16T06:33:54;10.68;;;4.65;;
34828;SDS011;21042;47.620;12.188;2022-10-16T06:36:21;11.50;;;4.30;;
34828;SDS011;21042;47.620;12.188;2022-10-16T06:38:48;11.25;;;4.57;;
34828;SDS011;21042;47.620;12.188;2022-10-16T06:41:17;10.65;;;4.90;;
34828;SDS011;21042;47.620;12.188;2022-10-16T06:43:45;7.57;;;5.05;;
34828;SDS011;21042;47.620;12.188;2022-10-16T06:48:40;10.88;;;5.15;;
34828;SDS011;21042;47.620;12.188;2022-10-16T06:51:11;12.57;;;4.90;;
34828;SDS011;21042;47.620;12.188;2022-10-16T06:53:41;8.15;;;4.45;;
34828;SDS011;21042;47.620;12.188;2022-10-16T06:56:28;10.77;;;5.03;;
34828;SDS011;21042;47.620;12.188;2022-10-16T06:58:57;7.38;;;3.92;;
34828;SDS011;21042;47.620;12.188;2022-10-16T07:01:24;8.45;;;4.40;;
34828;SDS011;21042;47.620;12.188;2022-10-16T07:03:51;8.23;;;4.30;;
34828;SDS011;21042;47.620;12.188;2022-10-16T07:06:19;8.63;;;4.35;;
34828;SDS011;21042;47.620;12.188;2022-10-16T07:08:48;9.18;;;4.47;;
34828;SDS011;21042;47.620;12.188;2022-10-16T07:13:43;9.07;;;3.83;;
34828;SDS011;21042;47.620;12.188;2022-10-16T07:16:18;4.85;;;3.55;;
34828;SDS011;21042;47.620;12.188;2022-10-16T07:18:46;10.50;;;4.07;;
34828;SDS011;21042;47.620;12.188;2022-10-16T07:21:16;6.10;;;3.85;;
34828;SDS011;21042;47.620;12.188;2022-10-16T07:23:50;8.30;;;3.47;;
34828;SDS011;21042;47.620;12.188;2022-10-16T07:26:17;6.15;;;3.60;;
34828;SDS011;21042;47.620;12.188;2022-10-16T07:28:44;7.65;;;3.88;;
34828;SDS011;21042;47.620;12.188;2022-10-16T07:31:12;5.97;;;3.95;;
34828;SDS011;21042;47.620;12.188;2022-10-16T07:33:40;13.00;;;3.78;;
34828;SDS011;21042;47.620;12.188;2022-10-16T07:36:10;7.82;;;3.67;;
34828;SDS011;21042;47.620;12.188;2022-10-16T07:38:41;6.57;;;4.00;;
34828;SDS011;21042;47.620;12.188;2022-10-16T07:41:10;8.02;;;3.22;;
34828;SDS011;21042;47.620;12.188;2022-10-16T07:43:38;8.57;;;3.70;;
34828;SDS011;21042;47.620;12.188;2022-10-16T07:46:05;6.03;;;3.53;;
34828;SDS011;21042;47.620;12.188;2022-10-16T07:48:33;7.03;;;3.28;;
34828;SDS011;21042;47.620;12.188;2022-10-16T07:51:01;7.43;;;3.22;;
34828;SDS011;21042;47.620;12.188;2022-10-16T07:53:29;9.07;;;3.63;;
34828;SDS011;21042;47.620;12.188;2022-10-16T07:55:57;5.50;;;3.70;;
34828;SDS011;21042;47.620;12.188;2022-10-16T07:58:26;11.13;;;4.50;;
34828;SDS011;21042;47.620;12.188;2022-10-16T08:00:54;10.75;;;4.60;;
34828;SDS011;21042;47.620;12.188;2022-10-16T08:03:21;5.65;;;4.05;;
34828;SDS011;21042;47.620;12.188;2022-10-16T08:05:48;5.55;;;3.10;;
34828;SDS011;21042;47.620;12.188;2022-10-16T08:08:16;6.22;;;3.35;;
34828;SDS011;21042;47.620;12.188;2022-10-16T08:10:44;6.25;;;3.50;;
34828;SDS011;21042;47.620;12.188;2022-10-16T08:13:11;4.93;;;3.45;;
34828;SDS011;21042;47.620;12.188;2022-10-16T08:15:41;4.70;;;2.70;;
34828;SDS011;21042;47.620;12.188;2022-10-16T08:18:09;8.73;;;3.28;;
34828;SDS011;21042;47.620;12.188;2022-10-16T08:20:37;5.80;;;3.40;;
34828;SDS011;21042;47.620;12.188;2022-10-16T08:23:05;3.67;;;2.67;;
34828;SDS011;21042;47.620;12.188;2022-10-16T08:25:35;6.97;;;3.08;;
34828;SDS011;21042;47.620;12.188;2022-10-16T08:28:07;7.90;;;3.10;;
34828;SDS011;21042;47.620;12.188;2022-10-16T08:30:34;3.20;;;2.40;;
34828;SDS011;21042;47.620;12.188;2022-10-16T08:35:29;4.05;;;2.63;;
34828;SDS011;21042;47.620;12.188;2022-10-16T08:37:55;6.97;;;3.13;;
34828;SDS011;21042;47.620;12.188;2022-10-16T08:40:24;6.00;;;3.10;;
34828;SDS011;21042;47.620;12.188;2022-10-16T08:48:35;5.82;;;2.60;;
34828;SDS011;21042;47.620;12.188;2022-10-16T08:51:18;7.55;;;2.42;;
34828;SDS011;21042;47.620;12.188;2022-10-16T08:53:48;9.27;;;2.65;;
34828;SDS011;21042;47.620;12.188;2022-10-16T08:56:24;4.15;;;2.63;;
34828;SDS011;21042;47.620;12.188;2022-10-16T08:58:52;6.43;;;2.50;;
34828;SDS011;21042;47.620;12.188;2022-10-16T09:01:32;4.43;;;2.80;;
34828;SDS011;21042;47.620;12.188;2022-10-16T09:07:15;5.72;;;2.85;;
34828;SDS011;21042;47.620;12.188;2022-10-16T09:10:15;4.97;;;2.70;;
34828;SDS011;21042;47.620;12.188;2022-10-16T09:13:02;3.58;;;2.67;;
34828;SDS011;21042;47.620;12.188;2022-10-16T09:18:24;4.70;;;3.05;;
34828;SDS011;21042;47.620;12.188;2022-10-16T09:23:38;4.88;;;2.47;;
34828;SDS011;21042;47.620;12.188;2022-10-16T09:26:05;4.78;;;2.17;;
34828;SDS011;21042;47.620;12.188;2022-10-16T09:28:37;4.88;;;2.42;;
34828;SDS011;21042;47.620;12.188;2022-10-16T09:31:04;3.55;;;2.50;;
34828;SDS011;21042;47.620;12.188;2022-10-16T09:33:37;11.10;;;2.53;;
34828;SDS011;21042;47.620;12.188;2022-10-16T09:36:08;6.03;;;3.22;;
34828;SDS011;21042;47.620;12.188;2022-10-16T09:38:36;5.72;;;3.00;;
34828;SDS011;21042;47.620;12.188;2022-10-16T09:41:13;4.40;;;2.92;;
34828;SDS011;21042;47.620;12.188;2022-10-16T09:43:55;4.93;;;3.10;;
34828;SDS011;21042;47.620;12.188;2022-10-16T09:46:29;6.20;;;3.20;;
34828;SDS011;21042;47.620;12.188;2022-10-16T09:48:58;5.75;;;3.13;;
34828;SDS011;21042;47.620;12.188;2022-10-16T09:51:34;4.30;;;3.10;;
34828;SDS011;21042;47.620;12.188;2022-10-16T09:56:36;3.97;;;2.70;;
34828;SDS011;21042;47.620;12.188;2022-10-16T09:59:12;9.65;;;4.82;;
34828;SDS011;21042;47.620;12.188;2022-10-16T10:01:41;3.92;;;2.25;;
34828;SDS011;21042;47.620;12.188;2022-10-16T10:04:18;4.65;;;3.03;;
34828;SDS011;21042;47.620;12.188;2022-10-16T10:06:46;6.68;;;2.83;;
34828;SDS011;21042;47.620;12.188;2022-10-16T10:09:36;8.05;;;3.15;;
34828;SDS011;21042;47.620;12.188;2022-10-16T10:12:05;3.75;;;2.65;;
34828;SDS011;21042;47.620;12.188;2022-10-16T10:14:47;5.57;;;2.90;;
34828;SDS011;21042;47.620;12.188;2022-10-16T10:22:31;6.13;;;2.97;;
34828;SDS011;21042;47.620;12.188;2022-10-16T10:30:20;4.68;;;2.80;;
34828;SDS011;21042;47.620;12.188;2022-10-16T10:45:48;4.53;;;2.83;;
34828;SDS011;21042;47.620;12.188;2022-10-16T10:56:59;4.15;;;3.10;;
34828;SDS011;21042;47.620;12.188;2022-10-16T11:04:54;7.30;;;3.35;;
34828;SDS011;21042;47.620;12.188;2022-10-16T11:07:52;12.00;;;6.28;;
34828;SDS011;21042;47.620;12.188;2022-10-16T11:10:26;6.97;;;3.92;;
34828;SDS011;21042;47.620;12.188;2022-10-16T11:15:40;5.55;;;3.60;;
34828;SDS011;21042;47.620;12.188;2022-10-16T11:18:21;5.47;;;3.22;;
34828;SDS011;21042;47.620;12.188;2022-10-16T11:21:02;4.97;;;2.77;;
34828;SDS011;21042;47.620;12.188;2022-10-16T11:23:36;4.60;;;3.20;;
34828;SDS011;21042;47.620;12.188;2022-10-16T11:26:05;4.38;;;3.28;;
34828;SDS011;21042;47.620;12.188;2022-10-16T11:28:45;7.20;;;3.10;;
34828;SDS011;21042;47.620;12.188;2022-10-16T11:31:27;9.70;;;4.03;;
34828;SDS011;21042;47.620;12.188;2022-10-16T11:37:10;6.90;;;3.83;;
34828;SDS011;21042;47.620;12.188;2022-10-16T11:39:40;5.47;;;3.28;;
34828;SDS011;21042;47.620;12.188;2022-10-16T11:42:10;4.68;;;3.35;;
34828;SDS011;21042;47.620;12.188;2022-10-16T11:50:28;8.18;;;3.22;;
34828;SDS011;21042;47.620;12.188;2022-10-16T11:55:32;5.40;;;3.50;;
34828;SDS011;21042;47.620;12.188;2022-10-16T11:58:12;4.80;;;3.45;;
34828;SDS011;21042;47.620;12.188;2022-10-16T12:03:45;5.40;;;3.20;;
34828;SDS011;21042;47.620;12.188;2022-10-16T12:06:39;4.70;;;3.38;;
34828;SDS011;21042;47.620;12.188;2022-10-16T12:09:14;4.05;;;3.00;;
34828;SDS011;21042;47.620;12.188;2022-10-16T12:11:47;6.55;;;3.60;;
34828;SDS011;21042;47.620;12.188;2022-10-16T12:19:24;4.57;;;3.28;;
34828;SDS011;21042;47.620;12.188;2022-10-16T12:21:57;5.18;;;3.40;;
34828;SDS011;21042;47.620;12.188;2022-10-16T12:24:38;6.07;;;2.95;;
34828;SDS011;21042;47.620;12.188;2022-10-16T12:27:20;6.00;;;3.55;;
34828;SDS011;21042;47.620;12.188;2022-10-16T12:30:02;5.50;;;3.30;;
34828;SDS011;21042;47.620;12.188;2022-10-16T12:32:32;4.63;;;3.42;;
34828;SDS011;21042;47.620;12.188;2022-10-16T12:35:21;4.25;;;3.08;;
34828;SDS011;21042;47.620;12.188;2022-10-16T12:37:50;4.03;;;3.38;;
34828;SDS011;21042;47.620;12.188;2022-10-16T12:42:58;8.75;;;3.15;;
34828;SDS011;21042;47.620;12.188;2022-10-16T12:47:52;9.25;;;3.80;;
34828;SDS011;21042;47.620;12.188;2022-10-16T12:52:51;5.28;;;3.53;;
34828;SDS011;21042;47.620;12.188;2022-10-16T12:55:19;6.97;;;3.15;;
34828;SDS011;21042;47.620;12.188;2022-10-16T13:00:52;4.03;;;3.08;;
34828;SDS011;21042;47.620;12.188;2022-10-16T13:17:10;4.97;;;2.95;;
34828;SDS011;21042;47.620;12.188;2022-10-16T13:28:08;4.95;;;3.95;;
34828;SDS011;21042;47.620;12.188;2022-10-16T13:33:16;3.55;;;2.50;;
34828;SDS011;21042;47.620;12.188;2022-10-16T13:35:47;3.95;;;2.95;;
34828;SDS011;21042;47.620;12.188;2022-10-16T13:38:18;2.65;;;2.20;;
34828;SDS011;21042;47.620;12.188;2022-10-16T13:40:56;4.68;;;3.10;;
34828;SDS011;21042;47.620;12.188;2022-10-16T13:43:29;6.13;;;2.67;;
34828;SDS011;21042;47.620;12.188;2022-10-16T13:46:03;5.50;;;3.45;;
34828;SDS011;21042;47.620;12.188;2022-10-16T13:48:32;7.90;;;3.58;;
34828;SDS011;21042;47.620;12.188;2022-10-16T13:53:29;4.63;;;2.60;;
34828;SDS011;21042;47.620;12.188;2022-10-16T13:55:56;4.63;;;3.08;;
34828;SDS011;21042;47.620;12.188;2022-10-16T13:58:23;5.18;;;3.53;;
34828;SDS011;21042;47.620;12.188;2022-10-16T14:00:54;4.10;;;3.20;;
34828;SDS011;21042;47.620;12.188;2022-10-16T14:03:23;9.43;;;2.88;;
34828;SDS011;21042;47.620;12.188;2022-10-16T14:05:52;6.55;;;2.70;;
34828;SDS011;21042;47.620;12.188;2022-10-16T14:08:22;4.00;;;2.85;;
34828;SDS011;21042;47.620;12.188;2022-10-16T14:10:51;5.65;;;2.80;;
34828;SDS011;21042;47.620;12.188;2022-10-16T14:16:18;4.20;;;2.67;;
34828;SDS011;21042;47.620;12.188;2022-10-16T14:18:51;4.20;;;2.63;;
34828;SDS011;21042;47.620;12.188;2022-10-16T14:21:28;4.18;;;2.63;;
34828;SDS011;21042;47.620;12.188;2022-10-16T14:23:55;4.22;;;2.63;;
34828;SDS011;21042;47.620;12.188;2022-10-16T14:26:23;9.10;;;2.53;;
34828;SDS011;21042;47.620;12.188;2022-10-16T14:29:06;2.92;;;2.47;;
34828;SDS011;21042;47.620;12.188;2022-10-16T14:31:38;3.58;;;2.30;;
34828;SDS011;21042;47.620;12.188;2022-10-16T14:34:23;2.80;;;2.50;;
34828;SDS011;21042;47.620;12.188;2022-10-16T14:36:50;5.15;;;2.50;;
34828;SDS011;21042;47.620;12.188;2022-10-16T14:39:18;3.08;;;2.15;;
34828;SDS011;21042;47.620;12.188;2022-10-16T14:41:48;5.45;;;2.40;;
34828;SDS011;21042;47.620;12.188;2022-10-16T14:44:19;4.43;;;2.60;;
34828;SDS011;21042;47.620;12.188;2022-10-16T14:49:21;10.00;;;3.92;;
34828;SDS011;21042;47.620;12.188;2022-10-16T14:51:49;10.35;;;4.38;;
34828;SDS011;21042;47.620;12.188;2022-10-16T14:54:17;5.57;;;3.45;;
34828;SDS011;21042;47.620;12.188;2022-10-16T14:56:45;6.85;;;3.58;;
34828;SDS011;21042;47.620;12.188;2022-10-16T14:59:22;4.93;;;2.67;;
34828;SDS011;21042;47.620;12.188;2022-10-16T15:01:54;6.15;;;2.80;;
34828;SDS011;21042;47.620;12.188;2022-10-16T15:06:47;2.92;;;2.10;;
34828;SDS011;21042;47.620;12.188;2022-10-16T15:09:14;3.55;;;2.13;;
34828;SDS011;21042;47.620;12.188;2022-10-16T15:11:41;2.58;;;1.92;;
34828;SDS011;21042;47.620;12.188;2022-10-16T15:14:11;6.55;;;1.90;;
34828;SDS011;21042;47.620;12.188;2022-10-16T15:16:44;3.72;;;2.03;;
34828;SDS011;21042;47.620;12.188;2022-10-16T15:19:12;11.38;;;3.35;;
34828;SDS011;21042;47.620;12.188;2022-10-16T15:21:38;8.57;;;3.40;;
34828;SDS011;21042;47.620;12.188;2022-10-16T15:24:08;6.63;;;3.05;;
34828;SDS011;21042;47.620;12.188;2022-10-16T15:26:44;9.20;;;3.80;;
34828;SDS011;21042;47.620;12.188;2022-10-16T15:29:12;10.75;;;5.07;;
34828;SDS011;21042;47.620;12.188;2022-10-16T15:31:39;8.65;;;4.00;;
34828;SDS011;21042;47.620;12.188;2022-10-16T15:34:09;9.85;;;4.00;;
34828;SDS011;21042;47.620;12.188;2022-10-16T15:36:37;8.88;;;3.17;;
34828;SDS011;21042;47.620;12.188;2022-10-16T15:39:04;5.70;;;1.95;;
34828;SDS011;21042;47.620;12.188;2022-10-16T15:41:36;5.43;;;2.08;;
34828;SDS011;21042;47.620;12.188;2022-10-16T15:44:03;8.32;;;3.22;;
34828;SDS011;21042;47.620;12.188;2022-10-16T15:46:30;7.18;;;3.63;;
34828;SDS011;21042;47.620;12.188;2022-10-16T15:48:57;11.57;;;3.78;;
34828;SDS011;21042;47.620;12.188;2022-10-16T15:51:25;6.68;;;3.50;;
34828;SDS011;21042;47.620;12.188;2022-10-16T15:53:55;11.65;;;4.03;;
34828;SDS011;21042;47.620;12.188;2022-10-16T15:56:23;7.40;;;3.33;;
34828;SDS011;21042;47.620;12.188;2022-10-16T15:58:51;5.35;;;3.30;;
34828;SDS011;21042;47.620;12.188;2022-10-16T16:01:19;9.43;;;3.85;;
34828;SDS011;21042;47.620;12.188;2022-10-16T16:03:46;8.73;;;3.47;;
34828;SDS011;21042;47.620;12.188;2022-10-16T16:06:13;6.10;;;3.63;;
34828;SDS011;21042;47.620;12.188;2022-10-16T16:08:41;4.95;;;3.53;;
34828;SDS011;21042;47.620;12.188;2022-10-16T16:11:11;10.55;;;4.35;;
34828;SDS011;21042;47.620;12.188;2022-10-16T16:13:40;7.15;;;2.95;;
34828;SDS011;21042;47.620;12.188;2022-10-16T16:16:16;10.13;;;3.70;;
34828;SDS011;21042;47.620;12.188;2022-10-16T16:18:44;10.70;;;4.20;;
34828;SDS011;21042;47.620;12.188;2022-10-16T16:23:38;10.93;;;3.97;;
34828;SDS011;21042;47.620;12.188;2022-10-16T16:26:06;11.77;;;4.70;;
34828;SDS011;21042;47.620;12.188;2022-10-16T16:28:36;6.95;;;4.43;;
34828;SDS011;21042;47.620;12.188;2022-10-16T16:31:04;5.63;;;3.28;;
34828;SDS011;21042;47.620;12.188;2022-10-16T16:33:31;8.73;;;3.83;;
34828;SDS011;21042;47.620;12.188;2022-10-16T16:35:58;11.32;;;3.97;;
34828;SDS011;21042;47.620;12.188;2022-10-16T16:38:26;7.65;;;3.28;;
34828;SDS011;21042;47.620;12.188;2022-10-16T16:40:53;8.75;;;3.63;;
34828;SDS011;21042;47.620;12.188;2022-10-16T16:43:25;6.75;;;3.90;;
34828;SDS011;21042;47.620;12.188;2022-10-16T16:45:52;6.63;;;3.08;;
34828;SDS011;21042;47.620;12.188;2022-10-16T16:50:47;6.82;;;3.47;;
34828;SDS011;21042;47.620;12.188;2022-10-16T16:53:14;5.32;;;3.55;;
34828;SDS011;21042;47.620;12.188;2022-10-16T16:55:40;8.15;;;4.13;;
34828;SDS011;21042;47.620;12.188;2022-10-16T16:58:07;10.25;;;3.67;;
34828;SDS011;21042;47.620;12.188;2022-10-16T17:00:34;4.93;;;2.60;;
34828;SDS011;21042;47.620;12.188;2022-10-16T17:03:01;8.20;;;3.35;;
34828;SDS011;21042;47.620;12.188;2022-10-16T17:05:28;8.75;;;3.45;;
34828;SDS011;21042;47.620;12.188;2022-10-16T17:07:54;10.00;;;2.63;;
34828;SDS011;21042;47.620;12.188;2022-10-16T17:10:21;6.25;;;2.20;;
34828;SDS011;21042;47.620;12.188;2022-10-16T17:12:48;5.03;;;2.40;;
34828;SDS011;21042;47.620;12.188;2022-10-16T17:15:15;3.92;;;2.10;;
34828;SDS011;21042;47.620;12.188;2022-10-16T17:17:41;6.28;;;2.03;;
34828;SDS011;21042;47.620;12.188;2022-10-16T17:20:08;6.72;;;2.22;;
34828;SDS011;21042;47.620;12.188;2022-10-16T17:22:36;7.70;;;2.90;;
34828;SDS011;21042;47.620;12.188;2022-10-16T17:25:03;11.80;;;4.55;;